TimeCDT,TemperatureF,Dew PointF,Humidity,Sea Level PressureIn,VisibilityMPH,Wind Direction,Wind SpeedMPH,Gust SpeedMPH,PrecipitationIn,Events,Conditions,WindDirDegrees,DateUTC
12:15 AM,57.2,46.4,67,30.11,10.0,North,9.2,-,N/A,,Clear,10,2013-09-04 05:15:00
12:35 AM,57.2,46.4,67,30.12,10.0,North,8.1,-,N/A,,Clear,10,2013-09-04 05:35:00
12:55 AM,55.4,46.4,72,30.13,10.0,North,8.1,-,N/A,,Clear,350,2013-09-04 05:55:00
1:15 AM,55.4,46.4,72,30.13,10.0,North,9.2,-,N/A,,Clear,350,2013-09-04 06:15:00
1:35 AM,53.6,46.4,77,30.14,10.0,NNW,8.1,-,N/A,,Clear,340,2013-09-04 06:35:00
1:55 AM,53.6,44.6,72,30.14,10.0,North,8.1,-,N/A,,Clear,350,2013-09-04 06:55:00
2:15 AM,51.8,44.6,76,30.14,10.0,North,8.1,-,N/A,,Clear,350,2013-09-04 07:15:00
2:35 AM,50.0,44.6,82,30.14,10.0,North,9.2,-,N/A,,Clear,350,2013-09-04 07:35:00
2:55 AM,50.0,44.6,82,30.15,10.0,NNW,8.1,-,N/A,,Clear,340,2013-09-04 07:55:00
3:15 AM,50.0,44.6,82,30.15,10.0,NNW,8.1,-,N/A,,Clear,340,2013-09-04 08:15:00
3:35 AM,48.2,44.6,87,30.15,10.0,NNW,8.1,-,N/A,,Clear,340,2013-09-04 08:35:00
3:55 AM,48.2,44.6,87,30.15,10.0,NNW,6.9,-,N/A,,Clear,330,2013-09-04 08:55:00
4:15 AM,48.2,44.6,87,30.15,10.0,NNW,5.8,-,N/A,,Clear,340,2013-09-04 09:15:00
4:35 AM,46.4,44.6,93,30.15,10.0,NNW,5.8,-,N/A,,Clear,330,2013-09-04 09:35:00
4:55 AM,46.4,42.8,87,30.16,10.0,NNW,5.8,-,N/A,,Clear,330,2013-09-04 09:55:00
5:15 AM,46.4,42.8,87,30.16,10.0,NNW,6.9,-,N/A,,Clear,330,2013-09-04 10:15:00
5:35 AM,46.4,42.8,87,30.16,10.0,NNW,3.5,-,N/A,,Clear,330,2013-09-04 10:35:00
5:55 AM,46.4,42.8,87,30.17,10.0,NNW,4.6,-,N/A,,Clear,340,2013-09-04 10:55:00
6:15 AM,46.4,42.8,87,30.17,10.0,NNW,4.6,-,N/A,,Clear,330,2013-09-04 11:15:00
6:35 AM,46.4,42.8,87,30.18,10.0,North,4.6,-,N/A,,Clear,350,2013-09-04 11:35:00
6:55 AM,46.4,42.8,87,30.19,10.0,North,4.6,-,N/A,,Clear,360,2013-09-04 11:55:00
7:15 AM,46.4,42.8,87,30.20,10.0,NNW,4.6,-,N/A,,Clear,340,2013-09-04 12:15:00
7:35 AM,46.4,42.8,87,30.20,10.0,North,5.8,-,N/A,,Clear,350,2013-09-04 12:35:00
7:55 AM,46.4,44.6,93,30.20,10.0,North,5.8,-,N/A,,Clear,350,2013-09-04 12:55:00
8:15 AM,48.2,44.6,87,30.21,10.0,NNW,5.8,-,N/A,,Clear,340,2013-09-04 13:15:00
8:35 AM,48.2,44.6,87,30.21,10.0,NNW,4.6,-,N/A,,Clear,330,2013-09-04 13:35:00
8:55 AM,48.2,44.6,87,30.22,8.0,NNW,4.6,-,N/A,,Clear,340,2013-09-04 13:55:00
9:15 AM,50.0,44.6,82,30.23,10.0,North,4.6,-,N/A,,Clear,350,2013-09-04 14:15:00
9:35 AM,51.8,44.6,76,30.23,10.0,NNW,5.8,-,N/A,,Clear,340,2013-09-04 14:35:00
9:55 AM,53.6,44.6,72,30.23,10.0,North,4.6,-,N/A,,Clear,350,2013-09-04 14:55:00
10:15 AM,53.6,46.4,77,30.24,10.0,NNW,4.6,-,N/A,,Clear,330,2013-09-04 15:15:00
10:35 AM,55.4,46.4,72,30.24,10.0,NNW,4.6,-,N/A,,Clear,330,2013-09-04 15:35:00
10:55 AM,57.2,46.4,67,30.24,10.0,North,4.6,-,N/A,,Clear,10,2013-09-04 15:55:00
11:15 AM,59.0,46.4,63,30.24,10.0,North,4.6,-,N/A,,Clear,350,2013-09-04 16:15:00
11:35 AM,59.0,46.4,63,30.24,10.0,NNW,5.8,-,N/A,,Clear,340,2013-09-04 16:35:00
11:55 AM,62.6,44.6,52,30.24,10.0,WNW,4.6,-,N/A,,Clear,290,2013-09-04 16:55:00
12:15 PM,62.6,44.6,52,30.24,10.0,NNW,4.6,-,N/A,,Clear,330,2013-09-04 17:15:00
12:35 PM,64.4,44.6,49,30.24,10.0,Calm,Calm,-,N/A,,Clear,0,2013-09-04 17:35:00
12:55 PM,64.4,42.8,45,30.23,10.0,Calm,Calm,-,N/A,,Clear,0,2013-09-04 17:55:00
1:15 PM,64.4,41.0,42,30.22,10.0,NE,5.8,-,N/A,,Partly Cloudy,50,2013-09-04 18:15:00
1:35 PM,64.4,41.0,42,30.22,10.0,NE,4.6,-,N/A,,Partly Cloudy,40,2013-09-04 18:35:00
1:55 PM,64.4,42.8,45,30.22,10.0,North,5.8,-,N/A,,Clear,10,2013-09-04 18:55:00
2:15 PM,64.4,44.6,49,30.22,10.0,North,5.8,-,N/A,,Clear,360,2013-09-04 19:15:00
2:35 PM,64.4,44.6,49,30.21,10.0,North,6.9,-,N/A,,Clear,360,2013-09-04 19:35:00
2:55 PM,64.4,44.6,49,30.21,10.0,NNE,5.8,-,N/A,,Clear,30,2013-09-04 19:55:00
3:15 PM,64.4,42.8,45,30.21,10.0,NNE,5.8,-,N/A,,Clear,20,2013-09-04 20:15:00
3:35 PM,66.2,41.0,40,30.21,10.0,NNW,3.5,-,N/A,,Clear,330,2013-09-04 20:35:00
3:55 PM,68.0,41.0,37,30.21,10.0,North,4.6,-,N/A,,Clear,350,2013-09-04 20:55:00
4:15 PM,66.2,41.0,40,30.21,10.0,North,4.6,-,N/A,,Clear,350,2013-09-04 21:15:00
4:35 PM,66.2,42.8,43,30.20,10.0,NNW,3.5,-,N/A,,Clear,340,2013-09-04 21:35:00
4:55 PM,66.2,41.0,40,30.20,10.0,NNW,3.5,-,N/A,,Clear,340,2013-09-04 21:55:00
5:15 PM,66.2,41.0,40,30.20,10.0,NNW,4.6,-,N/A,,Clear,330,2013-09-04 22:15:00
5:35 PM,66.2,42.8,43,30.19,10.0,North,3.5,-,N/A,,Clear,10,2013-09-04 22:35:00
5:55 PM,66.2,44.6,46,30.19,10.0,NNW,3.5,-,N/A,,Clear,340,2013-09-04 22:55:00
6:15 PM,66.2,44.6,46,30.19,10.0,Calm,Calm,-,N/A,,Clear,0,2013-09-04 23:15:00
6:35 PM,66.2,44.6,46,30.18,10.0,NNW,4.6,-,N/A,,Clear,340,2013-09-04 23:35:00
6:55 PM,66.2,44.6,46,30.18,10.0,Calm,Calm,-,N/A,,Clear,0,2013-09-04 23:55:00
7:15 PM,66.2,44.6,46,30.18,10.0,NNW,3.5,-,N/A,,Clear,330,2013-09-05 00:15:00
7:35 PM,62.6,48.2,59,30.18,5.0,Calm,Calm,-,N/A,,Haze,0,2013-09-05 00:35:00
7:55 PM,60.8,50.0,68,30.18,5.0,West,3.5,-,N/A,,Haze,280,2013-09-05 00:55:00
8:15 PM,59.0,51.8,77,30.18,9.0,Calm,Calm,-,N/A,,Clear,0,2013-09-05 01:15:00
8:35 PM,59.0,53.6,82,30.18,8.0,Calm,Calm,-,N/A,,Clear,0,2013-09-05 01:35:00
8:55 PM,57.2,51.8,82,30.18,7.0,Calm,Calm,-,N/A,,Clear,0,2013-09-05 01:55:00
9:15 PM,57.2,51.8,82,30.19,8.0,Calm,Calm,-,N/A,,Clear,0,2013-09-05 02:15:00
9:35 PM,57.2,50.0,77,30.19,9.0,Calm,Calm,-,N/A,,Clear,0,2013-09-05 02:35:00
9:55 PM,57.2,51.8,82,30.19,10.0,Calm,Calm,-,N/A,,Clear,0,2013-09-05 02:55:00
10:15 PM,57.2,51.8,82,30.19,10.0,Calm,Calm,-,N/A,,Clear,0,2013-09-05 03:15:00
10:35 PM,55.4,51.8,88,30.19,10.0,Calm,Calm,-,N/A,,Clear,0,2013-09-05 03:35:00
10:55 PM,55.4,50.0,82,30.19,10.0,Calm,Calm,-,N/A,,Clear,0,2013-09-05 03:55:00
11:15 PM,53.6,50.0,88,30.19,10.0,Calm,Calm,-,N/A,,Clear,0,2013-09-05 04:15:00
11:35 PM,53.6,50.0,88,30.19,10.0,Calm,Calm,-,N/A,,Clear,0,2013-09-05 04:35:00
11:55 PM,53.6,50.0,88,30.19,10.0,Calm,Calm,-,N/A,,Clear,0,2013-09-05 04:55:00